Time;durP1;ratioP1;P1;durP2;ratioP2;P2;SDS_P1;SDS_P2;PMS_P1;PMS_P2;Temp;Humidity;BMP_temperature;BMP_pressure;BME280_temperature;BME280_humidity;BME280_pressure;Samples;Min_cycle;Max_cycle;Signal;HPM_P1;HPM_P2
2023/04/14 00:00:34;;;;;;;5.90;1.60;;;6.90;99.90;;;;;;5039061;28;20044;-64
2023/04/14 00:03:00;;;;;;;4.68;1.60;;;6.90;99.90;;;;;;5066256;28;20112;-65
2023/04/14 00:05:29;;;;;;;6.00;1.95;;;6.80;99.90;;;;;;5055875;28;20451;-64
2023/04/14 00:07:55;;;;;;;4.88;1.45;;;6.70;99.90;;;;;;5055802;28;20484;-64
2023/04/14 00:10:21;;;;;;;6.35;1.70;;;6.70;99.90;;;;;;5057229;28;20033;-64
2023/04/14 00:12:46;;;;;;;7.18;1.95;;;6.60;99.90;;;;;;5055211;28;20112;-64
2023/04/14 00:15:12;;;;;;;4.00;1.90;;;6.60;99.90;;;;;;5065281;28;20067;-64
2023/04/14 00:17:37;;;;;;;9.73;2.25;;;6.50;99.90;;;;;;5062329;28;20367;-64
2023/04/14 00:20:03;;;;;;;7.35;2.20;;;6.50;99.90;;;;;;5064150;28;20037;-64
2023/04/14 00:22:29;;;;;;;6.85;2.03;;;6.40;99.90;;;;;;5056910;28;20055;-64
2023/04/14 00:24:55;;;;;;;5.28;2.00;;;6.40;99.90;;;;;;5055931;28;20479;-64
2023/04/14 00:27:20;;;;;;;4.32;1.83;;;6.30;99.90;;;;;;5056150;28;20033;-64
2023/04/14 00:29:46;;;;;;;7.50;1.95;;;6.30;99.90;;;;;;5056797;28;20490;-64
2023/04/14 00:32:12;;;;;;;4.50;1.88;;;6.20;99.90;;;;;;5065922;28;20032;-64
2023/04/14 00:34:37;;;;;;;5.18;2.22;;;6.10;99.90;;;;;;5067345;28;20371;-64
2023/04/14 00:37:03;;;;;;;6.47;2.03;;;6.10;99.90;;;;;;5067160;28;20487;-64
2023/04/14 00:39:28;;;;;;;4.53;1.85;;;6.10;99.90;;;;;;5052191;28;20037;-64
2023/04/14 00:41:54;;;;;;;5.30;2.10;;;6.00;99.90;;;;;;5053829;28;20410;-64
2023/04/14 00:44:19;;;;;;;4.50;2.10;;;6.00;99.90;;;;;;5052072;28;20504;-64
2023/04/14 00:46:46;;;;;;;7.03;2.28;;;6.00;99.90;;;;;;5060646;28;20448;-64
2023/04/14 00:49:11;;;;;;;6.18;2.28;;;5.90;99.90;;;;;;5059992;28;20041;-64
2023/04/14 00:51:37;;;;;;;6.22;2.10;;;5.90;99.90;;;;;;5052610;28;20108;-64
2023/04/14 00:54:05;;;;;;;6.85;2.28;;;5.80;99.90;;;;;;5053079;28;20073;-64
2023/04/14 00:56:32;;;;;;;3.75;2.03;;;5.80;99.90;;;;;;5054085;28;20040;-64
2023/04/14 00:59:00;;;;;;;4.88;1.83;;;5.70;99.90;;;;;;5056290;28;20063;-64
2023/04/14 01:01:27;;;;;;;5.50;1.98;;;5.70;99.90;;;;;;5053952;28;20513;-64
2023/04/14 01:03:54;;;;;;;4.15;2.15;;;5.60;99.90;;;;;;5069796;28;20049;-64
2023/04/14 01:06:20;;;;;;;4.00;1.70;;;5.50;99.90;;;;;;5036315;28;20080;-64
2023/04/14 01:08:47;;;;;;;3.78;1.88;;;5.50;99.90;;;;;;5052182;28;20100;-64
2023/04/14 01:11:30;;;;;;;5.30;1.92;;;5.50;99.90;;;;;;5054499;28;20449;-64
2023/04/14 01:14:02;;;;;;;6.00;2.00;;;5.40;99.90;;;;;;5066047;28;20508;-64
2023/04/14 01:16:31;;;;;;;5.03;2.20;;;5.40;99.90;;;;;;5038780;28;20033;-64
2023/04/14 01:19:07;;;;;;;4.25;2.20;;;5.40;99.90;;;;;;5047865;28;20044;-64
2023/04/14 01:21:38;;;;;;;4.32;2.30;;;5.30;99.90;;;;;;5041040;28;20030;-64
2023/04/14 01:24:30;;;;;;;6.18;2.53;;;5.30;99.90;;;;;;5045151;28;20099;-64
2023/04/14 01:27:03;;;;;;;;;;;5.30;99.90;;;;;;5061046;28;20032;-64
2023/04/14 01:29:45;;;;;;;3.88;2.13;;;5.30;99.90;;;;;;5068957;28;19920;-64
2023/04/14 01:32:17;;;;;;;5.53;2.42;;;5.20;99.90;;;;;;5032675;28;20041;-64
2023/04/14 01:34:56;;;;;;;5.70;2.58;;;5.30;99.90;;;;;;5058622;28;20040;-64
2023/04/14 01:37:57;;;;;;;5.53;2.70;;;5.20;99.90;;;;;;5047998;28;20509;-64
2023/04/14 01:40:26;;;;;;;6.68;2.63;;;5.30;99.90;;;;;;5051239;28;20069;-64
2023/04/14 01:45:25;;;;;;;3.33;1.90;;;5.40;99.90;;;;;;5050758;28;20545;-60
2023/04/14 01:47:51;;;;;;;5.82;2.50;;;5.40;99.90;;;;;;5047598;28;20048;-60
2023/04/14 01:50:20;;;;;;;4.40;2.20;;;5.40;99.90;;;;;;5033469;28;20041;-61
2023/04/14 01:52:50;;;;;;;3.45;2.00;;;5.40;99.90;;;;;;5067839;28;20089;-62
2023/04/14 01:55:18;;;;;;;4.77;2.37;;;5.40;99.90;;;;;;5059470;28;20534;-61
2023/04/14 01:57:47;;;;;;;4.45;2.58;;;5.40;99.90;;;;;;5063349;28;20494;-61
2023/04/14 02:00:15;;;;;;;5.35;2.55;;;5.50;99.90;;;;;;5050553;28;20033;-61
2023/04/14 02:02:44;;;;;;;4.35;2.50;;;5.50;99.90;;;;;;5046881;28;20502;-61
2023/04/14 02:05:11;;;;;;;2.67;2.05;;;5.60;99.90;;;;;;5043166;28;20051;-61
2023/04/14 02:07:39;;;;;;;2.90;2.28;;;5.60;99.90;;;;;;5048437;28;20055;-61
2023/04/14 02:10:06;;;;;;;3.70;2.17;;;5.60;99.90;;;;;;5062412;28;20444;-61
2023/04/14 02:12:32;;;;;;;4.88;2.08;;;5.60;99.90;;;;;;5065633;28;20037;-61
2023/04/14 02:15:00;;;;;;;3.22;2.30;;;5.60;99.90;;;;;;5049444;28;20055;-61
2023/04/14 02:17:27;;;;;;;2.33;2.03;;;5.60;99.90;;;;;;5065539;28;20036;-61
2023/04/14 02:19:53;;;;;;;3.72;2.38;;;5.50;99.90;;;;;;5055106;28;20120;-60
2023/04/14 02:22:19;;;;;;;5.32;2.50;;;5.60;99.90;;;;;;5043739;28;20036;-61
2023/04/14 02:24:46;;;;;;;6.22;2.50;;;5.60;99.90;;;;;;5037884;28;20041;-61
2023/04/14 02:27:32;;;;;;;7.03;2.40;;;5.60;99.90;;;;;;5056834;28;20112;-61
2023/04/14 02:30:02;;;;;;;4.22;2.60;;;5.60;99.90;;;;;;5052908;28;20580;-60
2023/04/14 02:32:29;;;;;;;4.80;2.50;;;5.50;99.90;;;;;;5053734;28;20032;-60
2023/04/14 02:35:07;;;;;;;5.85;2.67;;;5.50;99.90;;;;;;5061981;28;20044;-61
2023/04/14 02:37:37;;;;;;;4.90;2.78;;;5.60;99.90;;;;;;5049475;28;20048;-61
2023/04/14 02:40:13;;;;;;;6.43;2.28;;;5.60;99.90;;;;;;5065229;28;20032;-61
2023/04/14 02:42:44;;;;;;;3.55;2.40;;;5.60;99.90;;;;;;5057920;28;20040;-61
2023/04/14 02:45:13;;;;;;;4.85;2.20;;;5.60;99.90;;;;;;5049895;28;20033;-61
2023/04/14 02:47:43;;;;;;;3.63;2.42;;;5.50;99.90;;;;;;5046111;28;20045;-60
2023/04/14 02:50:14;;;;;;;5.63;2.60;;;5.50;99.90;;;;;;5050774;28;20115;-60
2023/04/14 02:52:42;;;;;;;3.78;2.47;;;5.50;99.90;;;;;;5056185;28;20090;-60
2023/04/14 02:55:09;;;;;;;4.28;2.55;;;5.50;99.90;;;;;;5059139;28;20044;-61
2023/04/14 02:57:36;;;;;;;5.78;2.67;;;5.40;99.90;;;;;;5027875;28;20091;-60
2023/04/14 03:00:02;;;;;;;5.90;2.75;;;5.40;99.90;;;;;;5042995;28;20078;-60
2023/04/14 03:02:28;;;;;;;3.63;2.60;;;5.30;99.90;;;;;;5030385;28;20025;-60
2023/04/14 03:04:54;;;;;;;3.15;2.75;;;5.30;99.90;;;;;;5046130;28;20131;-60
2023/04/14 03:07:21;;;;;;;5.30;2.60;;;5.30;99.90;;;;;;5055059;28;20167;-60
2023/04/14 03:09:51;;;;;;;3.85;2.63;;;5.20;99.90;;;;;;5056254;28;20036;-60
2023/04/14 03:12:18;;;;;;;5.50;2.75;;;5.20;99.90;;;;;;5048957;28;20059;-61
2023/04/14 03:14:44;;;;;;;6.03;2.90;;;5.20;99.90;;;;;;5029759;28;20195;-61
2023/04/14 03:17:13;;;;;;;5.95;2.92;;;5.20;99.90;;;;;;5060473;28;20229;-61
2023/04/14 03:19:40;;;;;;;6.00;3.33;;;5.20;99.90;;;;;;5026721;28;20040;-61
2023/04/14 03:22:09;;;;;;;8.30;3.65;;;5.20;99.90;;;;;;5020231;28;20538;-61
2023/04/14 03:24:36;;;;;;;7.75;3.03;;;5.20;99.90;;;;;;5043469;28;20037;-61
2023/04/14 03:27:05;;;;;;;5.60;3.53;;;5.20;99.90;;;;;;5049550;28;20077;-61
2023/04/14 03:29:39;;;;;;;6.93;3.88;;;5.30;99.90;;;;;;5045614;28;20077;-60
2023/04/14 03:32:07;;;;;;;6.90;3.25;;;5.20;99.90;;;;;;5050612;28;20033;-61
2023/04/14 03:34:40;;;;;;;8.30;3.53;;;5.20;99.90;;;;;;5049562;28;20037;-61
2023/04/14 03:37:08;;;;;;;8.45;3.42;;;5.20;99.90;;;;;;5066306;28;20044;-61
2023/04/14 03:39:37;;;;;;;7.45;3.45;;;5.20;99.90;;;;;;5049655;28;20112;-61
2023/04/14 03:42:06;;;;;;;10.35;3.60;;;5.20;99.90;;;;;;5042120;28;20068;-61
2023/04/14 03:44:35;;;;;;;8.13;3.90;;;5.20;99.90;;;;;;5044198;28;20483;-61
2023/04/14 03:47:02;;;;;;;7.55;3.55;;;5.20;99.90;;;;;;5050759;28;20044;-60
2023/04/14 03:49:32;;;;;;;7.22;3.55;;;5.10;99.90;;;;;;5052964;28;20116;-61
2023/04/14 03:52:01;;;;;;;7.65;4.00;;;5.10;99.90;;;;;;5060021;28;20033;-61
2023/04/14 03:54:29;;;;;;;6.45;3.58;;;5.10;99.90;;;;;;5063132;28;20039;-60
2023/04/14 03:56:56;;;;;;;7.65;3.65;;;5.00;99.90;;;;;;5058413;28;20048;-60
2023/04/14 03:59:24;;;;;;;3.88;1.70;;;5.00;99.90;;;;;;5041595;28;20173;-60
2023/04/14 04:01:51;;;;;;;4.30;2.92;;;5.00;99.90;;;;;;5033408;28;20033;-60
2023/04/14 04:04:17;;;;;;;4.82;2.65;;;4.90;99.90;;;;;;5054077;28;20048;-60
2023/04/14 04:06:43;;;;;;;3.67;2.78;;;4.80;99.90;;;;;;5057332;28;20529;-60
2023/04/14 04:09:13;;;;;;;6.70;3.00;;;4.80;99.90;;;;;;5048616;28;20125;-60
2023/04/14 04:11:41;;;;;;;7.63;3.30;;;4.80;99.90;;;;;;5043099;28;20503;-60
2023/04/14 04:14:08;;;;;;;7.45;3.72;;;4.80;99.90;;;;;;5020078;28;20040;-60
2023/04/14 04:16:37;;;;;;;9.20;3.58;;;4.80;99.90;;;;;;5034922;28;20434;-60
2023/04/14 04:19:05;;;;;;;8.27;3.70;;;4.80;99.90;;;;;;5041195;28;20037;-60
2023/04/14 04:21:34;;;;;;;8.23;4.20;;;4.80;99.90;;;;;;5054874;28;20492;-61
2023/04/14 04:24:00;;;;;;;5.00;3.60;;;4.70;99.90;;;;;;5070434;28;20064;-61
2023/04/14 04:26:26;;;;;;;7.00;3.60;;;4.70;99.90;;;;;;5061947;28;20040;-61
2023/04/14 04:28:56;;;;;;;5.38;3.38;;;4.70;99.90;;;;;;5050637;28;20107;-60
2023/04/14 04:31:23;;;;;;;8.60;3.70;;;4.70;99.90;;;;;;5041966;28;20033;-60
2023/04/14 04:33:49;;;;;;;11.68;3.95;;;4.70;99.90;;;;;;5041340;28;20037;-60
2023/04/14 04:36:15;;;;;;;6.07;3.65;;;4.70;99.90;;;;;;5073462;28;20119;-60
2023/04/14 04:38:41;;;;;;;6.72;3.60;;;4.70;99.90;;;;;;5055205;28;20049;-60
2023/04/14 04:41:19;;;;;;;10.43;3.85;;;4.70;99.90;;;;;;5047165;28;20048;-60
2023/04/14 04:43:44;;;;;;;7.15;3.58;;;4.70;99.90;;;;;;5047263;28;20044;-60
2023/04/14 04:46:43;;;;;;;5.35;3.83;;;4.60;99.90;;;;;;5042914;28;20048;-60
2023/04/14 04:49:09;;;;;;;8.20;4.75;;;4.60;99.90;;;;;;5040946;28;20029;-60
2023/04/14 04:51:34;;;;;;;7.72;3.88;;;4.50;99.90;;;;;;5067199;28;20430;-60
2023/04/14 04:54:00;;;;;;;4.63;3.42;;;4.50;99.90;;;;;;5070521;28;20041;-60
2023/04/14 04:56:26;;;;;;;7.20;4.05;;;4.50;99.90;;;;;;5052750;28;20086;-60
2023/04/14 04:58:52;;;;;;;11.55;4.35;;;4.50;99.90;;;;;;5027976;28;20146;-60
2023/04/14 05:01:18;;;;;;;7.30;4.28;;;4.50;99.90;;;;;;5049938;28;20052;-60
2023/04/14 05:03:44;;;;;;;8.43;3.95;;;4.50;99.90;;;;;;5057885;28;20047;-60
2023/04/14 05:06:10;;;;;;;8.38;4.38;;;4.50;99.90;;;;;;5056139;28;20068;-60
2023/04/14 05:08:36;;;;;;;7.93;4.22;;;4.50;99.90;;;;;;5073387;28;20094;-60
2023/04/14 05:11:01;;;;;;;9.50;4.82;;;4.50;99.90;;;;;;5073623;28;20504;-60
2023/04/14 05:13:27;;;;;;;9.30;4.40;;;4.40;99.90;;;;;;5073215;28;20040;-60
2023/04/14 05:16:02;;;;;;;8.35;4.28;;;4.40;99.90;;;;;;5062557;28;20044;-60
2023/04/14 05:18:28;;;;;;;7.50;4.18;;;4.50;99.90;;;;;;5054231;28;20039;-60
2023/04/14 05:20:53;;;;;;;8.70;4.18;;;4.50;99.90;;;;;;5069574;28;20036;-60
2023/04/14 05:23:19;;;;;;;6.72;4.32;;;4.40;99.90;;;;;;5039209;28;20587;-61
2023/04/14 05:25:44;;;;;;;8.68;4.50;;;4.50;99.90;;;;;;5027179;28;20128;-60
2023/04/14 05:28:12;;;;;;;7.45;4.10;;;4.40;99.90;;;;;;5053274;28;20037;-61
2023/04/14 05:30:38;;;;;;;8.23;4.07;;;4.40;99.90;;;;;;5053612;28;20029;-60
2023/04/14 05:33:03;;;;;;;4.50;3.13;;;4.50;99.90;;;;;;5061159;28;20048;-61
2023/04/14 05:35:29;;;;;;;6.38;3.65;;;4.50;99.90;;;;;;5060955;28;20112;-61
2023/04/14 05:37:55;;;;;;;6.00;3.47;;;4.50;99.90;;;;;;5053388;28;20072;-61
2023/04/14 05:40:21;;;;;;;6.03;3.58;;;4.40;99.90;;;;;;5062273;28;20032;-61
2023/04/14 05:42:46;;;;;;;5.75;3.20;;;4.40;99.90;;;;;;5072484;28;20044;-61
2023/04/14 05:45:12;;;;;;;6.07;3.60;;;4.40;99.90;;;;;;5059332;28;20428;-61
2023/04/14 05:47:38;;;;;;;8.65;4.50;;;4.50;99.90;;;;;;5065983;28;20029;-61
2023/04/14 05:50:05;;;;;;;11.40;4.30;;;4.50;99.90;;;;;;5072915;28;20032;-60
2023/04/14 05:52:31;;;;;;;6.53;3.72;;;4.60;99.90;;;;;;5033721;28;20052;-60
2023/04/14 05:54:56;;;;;;;5.80;3.85;;;4.60;99.90;;;;;;5032131;28;20040;-61
2023/04/14 05:57:22;;;;;;;7.72;3.80;;;4.70;99.90;;;;;;5026821;28;20473;-61
2023/04/14 05:59:47;;;;;;;7.55;3.67;;;4.70;99.90;;;;;;5065512;28;20044;-60
2023/04/14 06:02:13;;;;;;;7.47;3.70;;;4.70;99.90;;;;;;5048469;28;20032;-61
2023/04/14 06:04:38;;;;;;;7.25;4.25;;;4.80;99.90;;;;;;5047663;28;20491;-61
2023/04/14 06:07:04;;;;;;;7.15;4.18;;;4.80;99.90;;;;;;5053018;28;20075;-60
2023/04/14 06:09:30;;;;;;;8.40;4.07;;;4.90;99.90;;;;;;5060874;28;20060;-61
2023/04/14 06:11:56;;;;;;;7.80;4.00;;;5.00;99.90;;;;;;5051599;28;20041;-61
2023/04/14 06:14:21;;;;;;;5.85;3.97;;;5.00;99.90;;;;;;5042900;28;20044;-61
2023/04/14 06:16:47;;;;;;;6.47;3.90;;;5.00;99.90;;;;;;5059002;28;20521;-62
2023/04/14 06:19:12;;;;;;;5.90;4.05;;;5.10;99.90;;;;;;5058280;28;20043;-61
2023/04/14 06:21:38;;;;;;;7.20;5.07;;;5.20;99.90;;;;;;5065549;28;20039;-61
2023/04/14 06:24:04;;;;;;;10.27;5.22;;;5.20;99.90;;;;;;5050904;28;20037;-61
2023/04/14 06:26:31;;;;;;;9.90;6.00;;;5.30;99.90;;;;;;5050120;28;20034;-61
2023/04/14 06:28:56;;;;;;;12.55;6.40;;;5.40;99.90;;;;;;5050545;28;20047;-61
2023/04/14 06:31:22;;;;;;;9.45;5.72;;;5.50;99.90;;;;;;5031877;28;20120;-61
2023/04/14 06:33:47;;;;;;;9.32;6.05;;;5.60;99.90;;;;;;5049471;28;20068;-61
2023/04/14 06:36:15;;;;;;;14.07;6.20;;;5.60;99.90;;;;;;5029495;28;20052;-61
2023/04/14 06:38:41;;;;;;;10.02;5.40;;;5.70;99.90;;;;;;5064017;28;20044;-62
2023/04/14 06:41:06;;;;;;;13.77;5.85;;;5.80;99.90;;;;;;5052142;28;20041;-61
2023/04/14 06:43:32;;;;;;;10.38;6.45;;;5.90;99.90;;;;;;5047932;28;20052;-61
2023/04/14 06:45:57;;;;;;;13.95;6.68;;;6.00;99.90;;;;;;5046119;28;20051;-61
2023/04/14 06:48:23;;;;;;;11.32;5.63;;;6.10;99.90;;;;;;5060553;28;20024;-61
2023/04/14 06:50:55;;;;;;;10.60;6.47;;;6.20;99.90;;;;;;5030206;28;20120;-61
2023/04/14 06:53:22;;;;;;;9.07;5.18;;;6.40;99.90;;;;;;5045890;28;20042;-61
2023/04/14 06:55:57;;;;;;;8.15;5.20;;;6.50;99.90;;;;;;5048254;28;20094;-61
2023/04/14 06:58:24;;;;;;;9.10;5.15;;;6.70;99.90;;;;;;5049040;28;20037;-61
2023/04/14 07:01:00;;;;;;;9.57;4.80;;;6.90;99.90;;;;;;5048330;28;20773;-61
2023/04/14 07:03:28;;;;;;;7.95;3.72;;;7.00;99.90;;;;;;5048665;28;20033;-61
2023/04/14 07:05:53;;;;;;;13.43;3.90;;;7.20;99.90;;;;;;5050200;28;20076;-61
2023/04/14 07:08:20;;;;;;;7.75;4.35;;;7.20;99.90;;;;;;5035682;28;20071;-61
2023/04/14 07:10:46;;;;;;;9.73;4.55;;;7.40;99.90;;;;;;5059859;28;20036;-61
2023/04/14 07:13:12;;;;;;;9.43;4.47;;;7.50;99.90;;;;;;5047186;28;20542;-61
2023/04/14 07:15:37;;;;;;;7.07;3.97;;;7.60;99.90;;;;;;5042750;28;20036;-61
2023/04/14 07:18:03;;;;;;;8.82;4.65;;;7.70;99.90;;;;;;5023274;28;20045;-61
2023/04/14 07:20:28;;;;;;;7.82;4.22;;;7.80;99.90;;;;;;5025901;28;20075;-61
2023/04/14 07:22:54;;;;;;;8.68;4.25;;;7.90;99.90;;;;;;5042192;28;20489;-61
2023/04/14 07:25:20;;;;;;;9.45;3.95;;;8.10;99.90;;;;;;5026075;28;20090;-61
2023/04/14 07:27:46;;;;;;;10.60;4.57;;;8.20;99.90;;;;;;5027259;28;20041;-61
2023/04/14 07:30:12;;;;;;;12.07;5.18;;;8.30;99.90;;;;;;5051146;28;20044;-61
2023/04/14 07:32:37;;;;;;;10.55;4.30;;;8.50;99.90;;;;;;5032390;28;20045;-61
2023/04/14 07:35:04;;;;;;;7.43;3.85;;;8.60;99.90;;;;;;5052031;28;20037;-61
2023/04/14 07:37:30;;;;;;;12.13;4.22;;;8.80;99.90;;;;;;5033552;28;20040;-61
2023/04/14 07:39:57;;;;;;;7.57;3.75;;;8.90;99.90;;;;;;5054240;28;20500;-61
2023/04/14 07:42:23;;;;;;;9.27;4.15;;;9.10;99.90;;;;;;5062103;28;20075;-61
2023/04/14 07:44:48;;;;;;;7.75;3.90;;;9.20;99.90;;;;;;5061162;22;20064;-67
2023/04/14 07:47:14;;;;;;;6.93;3.50;;;9.30;99.90;;;;;;5065039;28;20075;-67
2023/04/14 07:49:40;;;;;;;8.48;3.90;;;9.50;99.90;;;;;;5068468;28;20052;-67
2023/04/14 07:52:05;;;;;;;6.65;3.33;;;9.60;99.90;;;;;;5081060;28;20695;-66
2023/04/14 07:54:31;;;;;;;10.77;3.65;;;9.70;99.90;;;;;;5051857;28;20029;-66
2023/04/14 07:56:56;;;;;;;8.27;3.80;;;9.80;99.90;;;;;;5044214;28;20515;-67
2023/04/14 07:59:22;;;;;;;11.38;3.40;;;9.90;99.90;;;;;;5040860;28;21480;-66
2023/04/14 08:01:48;;;;;;;12.00;3.72;;;10.10;99.90;;;;;;5040948;28;20156;-66
2023/04/14 08:04:14;;;;;;;10.15;3.40;;;10.20;99.90;;;;;;5044414;28;20455;-66
2023/04/14 08:06:39;;;;;;;11.20;3.60;;;10.30;99.90;;;;;;5043975;28;20056;-67
2023/04/14 08:09:05;;;;;;;7.20;3.75;;;10.30;99.90;;;;;;5043956;28;20033;-66
2023/04/14 08:11:31;;;;;;;8.18;3.40;;;10.40;99.90;;;;;;5044304;28;20075;-66
2023/04/14 08:13:56;;;;;;;5.13;3.35;;;10.60;99.90;;;;;;5044829;28;20033;-66
2023/04/14 08:16:22;;;;;;;9.45;4.07;;;10.70;99.90;;;;;;5041366;28;20037;-66
2023/04/14 08:18:48;;;;;;;9.75;4.15;;;10.80;99.90;;;;;;5046512;28;20467;-66
2023/04/14 08:21:15;;;;;;;8.10;3.10;;;11.00;99.90;;;;;;5062635;28;20067;-66
2023/04/14 08:23:41;;;;;;;7.15;2.78;;;11.10;99.90;;;;;;5071352;28;20056;-66
2023/04/14 08:26:06;;;;;;;8.55;3.15;;;11.20;99.90;;;;;;5052927;28;20033;-66
2023/04/14 08:28:32;;;;;;;10.73;4.15;;;11.30;99.90;;;;;;5053918;28;20040;-66
2023/04/14 08:30:57;;;;;;;9.88;3.03;;;11.50;99.90;;;;;;5062547;28;20037;-66
2023/04/14 08:33:23;;;;;;;7.07;2.05;;;11.60;99.90;;;;;;5046132;28;20048;-66
2023/04/14 08:35:48;;;;;;;7.43;1.67;;;11.70;99.90;;;;;;5057658;28;20067;-66
2023/04/14 08:38:14;;;;;;;10.02;2.40;;;11.80;99.90;;;;;;5056023;28;20500;-66
2023/04/14 08:40:41;;;;;;;8.15;2.00;;;12.00;99.90;;;;;;5065698;28;20036;-66
2023/04/14 08:43:08;;;;;;;6.68;2.30;;;12.10;99.90;;;;;;5055989;28;20045;-66
2023/04/14 08:45:33;;;;;;;8.05;2.60;;;12.10;99.90;;;;;;5040975;28;20040;-65
2023/04/14 08:48:01;;;;;;;10.35;2.50;;;12.20;99.90;;;;;;5070297;28;20105;-66
2023/04/14 08:50:41;;;;;;;10.95;2.92;;;12.30;99.90;;;;;;5072157;28;20115;-66
2023/04/14 08:53:08;;;;;;;8.95;2.20;;;12.30;99.90;;;;;;5064045;28;20120;-66
2023/04/14 08:55:39;;;;;;;7.07;1.75;;;12.40;99.90;;;;;;5059789;28;20040;-65
2023/04/14 08:58:09;;;;;;;6.70;2.00;;;12.50;99.90;;;;;;5053552;28;20049;-66
2023/04/14 09:00:34;;;;;;;7.25;2.03;;;12.50;99.90;;;;;;5049824;28;20299;-66
2023/04/14 09:03:00;;;;;;;6.70;2.20;;;12.60;99.90;;;;;;5061446;28;20406;-66
2023/04/14 09:05:26;;;;;;;7.95;2.05;;;12.70;99.90;;;;;;5048030;28;20387;-66
2023/04/14 09:07:52;;;;;;;7.25;2.40;;;12.70;99.90;;;;;;5069855;28;20041;-66
2023/04/14 09:10:20;;;;;;;9.45;2.22;;;12.80;99.90;;;;;;5059218;28;20033;-66
2023/04/14 09:12:47;;;;;;;7.65;2.10;;;12.80;99.90;;;;;;5060665;28;20045;-66
2023/04/14 09:15:13;;;;;;;9.48;2.22;;;12.90;99.90;;;;;;5056879;28;20037;-64
2023/04/14 09:17:39;;;;;;;6.47;2.20;;;12.90;99.90;;;;;;5068169;28;20071;-66
2023/04/14 09:20:05;;;;;;;6.53;2.40;;;13.00;99.90;;;;;;5071258;28;20478;-66
2023/04/14 09:22:32;;;;;;;6.55;2.25;;;13.10;99.90;;;;;;5050719;28;20064;-66
2023/04/14 09:24:58;;;;;;;6.90;2.15;;;13.20;99.90;;;;;;5057057;28;20041;-66
2023/04/14 09:27:25;;;;;;;11.13;2.90;;;13.30;99.90;;;;;;5045234;28;20398;-66
2023/04/14 09:29:52;;;;;;;7.72;2.20;;;13.30;99.90;;;;;;5043394;28;20037;-66
2023/04/14 09:32:18;;;;;;;10.43;2.60;;;13.30;99.90;;;;;;5052152;28;20107;-66
2023/04/14 09:34:53;;;;;;;9.73;3.17;;;13.40;99.90;;;;;;5057468;28;20128;-65
2023/04/14 09:37:20;;;;;;;7.03;2.40;;;13.40;99.90;;;;;;5049561;28;20166;-66
2023/04/14 09:39:50;;;;;;;9.02;2.83;;;13.30;99.90;;;;;;5047986;28;20041;-66
2023/04/14 09:42:17;;;;;;;11.63;3.08;;;13.40;99.90;;;;;;5054717;28;20037;-66
2023/04/14 09:44:56;;;;;;;9.48;2.90;;;13.60;99.90;;;;;;5066713;28;20516;-64
2023/04/14 09:47:23;;;;;;;7.25;2.72;;;13.70;99.90;;;;;;5023626;28;20833;-65
2023/04/14 09:50:03;;;;;;;8.15;2.42;;;13.80;99.90;;;;;;5044504;28;20160;-66
2023/04/14 09:52:43;;;;;;;5.95;2.78;;;13.90;99.90;;;;;;5060824;28;20478;-66
2023/04/14 09:55:13;;;;;;;9.75;2.95;;;13.90;99.60;;;;;;5047236;28;20066;-66
2023/04/14 09:57:50;;;;;;;8.88;2.50;;;13.90;99.90;;;;;;5041278;28;20175;-66
2023/04/14 10:00:21;;;;;;;6.40;2.47;;;14.00;99.90;;;;;;5046785;28;20100;-66
2023/04/14 10:02:48;;;;;;;10.57;2.65;;;14.10;99.90;;;;;;5041361;28;20056;-64
2023/04/14 10:05:14;;;;;;;10.32;2.90;;;14.10;99.40;;;;;;5058668;28;20044;-64
2023/04/14 10:07:41;;;;;;;6.97;3.38;;;14.10;97.80;;;;;;5061815;28;20486;-66
2023/04/14 10:10:10;;;;;;;10.48;2.97;;;14.10;98.10;;;;;;5062676;28;20066;-66
2023/04/14 10:12:36;;;;;;;10.45;3.03;;;14.00;96.70;;;;;;5024829;28;20539;-66
2023/04/14 10:15:03;;;;;;;9.80;2.78;;;14.00;97.00;;;;;;5050406;28;20064;-66
2023/04/14 10:17:29;;;;;;;8.68;2.50;;;14.00;96.80;;;;;;5067407;28;20115;-66
2023/04/14 10:19:54;;;;;;;7.95;2.60;;;14.10;96.80;;;;;;5063819;28;20521;-66
2023/04/14 10:22:21;;;;;;;9.70;2.72;;;14.10;96.60;;;;;;5062868;28;20043;-66
2023/04/14 10:24:48;;;;;;;8.75;2.67;;;14.10;96.00;;;;;;5059036;28;20130;-66
2023/04/14 10:27:14;;;;;;;9.07;2.35;;;14.10;95.30;;;;;;5064119;28;20029;-67
2023/04/14 10:29:41;;;;;;;5.90;2.20;;;14.20;95.50;;;;;;5066263;28;20543;-66
2023/04/14 10:32:09;;;;;;;9.82;3.33;;;14.30;95.70;;;;;;5070296;28;20036;-66
2023/04/14 10:34:36;;;;;;;9.40;2.22;;;14.40;94.90;;;;;;5045120;28;20033;-66
2023/04/14 10:37:15;;;;;;;7.07;2.67;;;14.50;95.20;;;;;;5040965;28;20087;-66
2023/04/14 10:39:41;;;;;;;8.07;2.20;;;14.60;92.80;;;;;;5046009;28;20041;-66
2023/04/14 10:42:07;;;;;;;8.10;2.25;;;14.50;92.10;;;;;;5014076;28;20049;-66
2023/04/14 10:44:34;;;;;;;7.30;2.25;;;14.60;93.70;;;;;;5044684;28;20460;-66
2023/04/14 10:47:06;;;;;;;8.38;2.50;;;14.60;93.20;;;;;;5047381;28;20387;-66
2023/04/14 10:49:39;;;;;;;6.78;2.35;;;14.60;92.50;;;;;;5060871;28;20521;-64
2023/04/14 10:52:26;;;;;;;9.65;2.85;;;14.70;93.60;;;;;;5033686;28;20100;-64
2023/04/14 10:54:59;;;;;;;7.57;2.92;;;14.70;91.80;;;;;;5054205;28;20098;-64
2023/04/14 10:57:26;;;;;;;11.07;2.78;;;14.80;92.90;;;;;;5056531;28;20047;-64
2023/04/14 10:59:59;;;;;;;8.35;2.28;;;14.80;92.80;;;;;;5044391;28;20441;-64
2023/04/14 11:02:30;;;;;;;6.25;2.28;;;14.90;92.40;;;;;;5063223;28;20497;-66
2023/04/14 11:05:07;;;;;;;6.28;2.10;;;14.90;90.00;;;;;;5055179;28;20086;-66
2023/04/14 11:07:57;;;;;;;8.80;2.10;;;14.90;86.60;;;;;;5041579;28;20131;-66
2023/04/14 11:10:23;;;;;;;8.50;2.40;;;14.90;81.20;;;;;;5044670;28;20044;-66
2023/04/14 11:13:00;;;;;;;6.15;1.95;;;14.80;83.30;;;;;;5070060;28;20402;-66
2023/04/14 11:16:04;;;;;;;7.95;2.47;;;14.90;84.30;;;;;;5044392;28;20067;-66
2023/04/14 11:18:31;;;;;;;9.27;2.72;;;14.80;81.60;;;;;;5058233;28;20040;-66
2023/04/14 11:21:12;;;;;;;8.82;2.40;;;14.90;85.40;;;;;;5045038;28;20092;-66
2023/04/14 11:23:37;;;;;;;5.78;2.67;;;15.00;83.60;;;;;;5053487;28;20040;-65
2023/04/14 11:26:08;;;;;;;8.32;2.45;;;15.10;83.40;;;;;;5068199;28;20042;-66
2023/04/14 11:28:40;;;;;;;6.10;2.08;;;15.20;81.30;;;;;;5062346;28;20040;-66
2023/04/14 11:31:07;;;;;;;7.13;2.50;;;15.20;80.90;;;;;;5049489;28;20033;-66
2023/04/14 11:33:36;;;;;;;6.88;2.90;;;15.20;79.50;;;;;;5071003;28;20049;-66
2023/04/14 11:36:04;;;;;;;8.40;3.05;;;15.40;80.50;;;;;;5048299;28;20398;-66
2023/04/14 11:38:30;;;;;;;12.57;3.25;;;15.30;78.60;;;;;;5059802;28;20044;-66
2023/04/14 11:40:56;;;;;;;9.57;3.15;;;15.30;77.00;;;;;;5052840;28;20040;-66
2023/04/14 11:43:23;;;;;;;10.55;2.88;;;15.20;78.60;;;;;;5070986;28;20115;-66
2023/04/14 11:45:50;;;;;;;6.22;3.00;;;15.10;79.20;;;;;;5052355;28;20033;-66
2023/04/14 11:48:17;;;;;;;7.55;2.22;;;15.20;81.40;;;;;;5040415;28;20505;-67
2023/04/14 11:50:44;;;;;;;6.95;2.25;;;15.40;80.70;;;;;;5062770;28;20041;-67
2023/04/14 11:53:16;;;;;;;6.57;3.00;;;15.40;78.20;;;;;;5046341;28;20056;-66
2023/04/14 11:55:46;;;;;;;7.68;2.33;;;15.40;76.30;;;;;;5028658;28;20045;-66
2023/04/14 11:58:14;;;;;;;9.40;2.88;;;15.40;74.60;;;;;;5033093;28;20044;-64
2023/04/14 12:00:40;;;;;;;8.55;2.50;;;15.50;73.50;;;;;;5033064;28;20118;-66
2023/04/14 12:03:06;;;;;;;9.20;2.78;;;15.60;73.00;;;;;;5042546;28;20045;-66
2023/04/14 12:05:32;;;;;;;7.70;2.50;;;15.70;72.70;;;;;;5043937;28;20584;-66
2023/04/14 12:08:00;;;;;;;6.90;3.08;;;15.80;74.20;;;;;;5065986;28;20448;-66
2023/04/14 12:10:26;;;;;;;7.00;2.55;;;15.80;72.70;;;;;;5064620;28;20081;-66
2023/04/14 12:13:20;;;;;;;9.13;2.85;;;15.90;75.20;;;;;;5048157;28;20029;-65
2023/04/14 12:15:46;;;;;;;7.10;2.65;;;16.10;73.10;;;;;;5024271;28;20046;-65
2023/04/14 12:18:16;;;;;;;8.05;3.10;;;16.10;72.30;;;;;;5054036;28;20040;-65
2023/04/14 12:20:46;;;;;;;7.68;2.30;;;16.10;71.20;;;;;;5064384;28;20037;-64
2023/04/14 12:23:12;;;;;;;5.65;2.67;;;16.10;72.20;;;;;;5070218;28;20151;-64
2023/04/14 12:25:39;;;;;;;8.18;2.58;;;15.90;71.40;;;;;;5051962;28;20402;-64
2023/04/14 12:28:07;;;;;;;6.95;2.60;;;15.70;71.10;;;;;;5067505;28;20047;-67
2023/04/14 12:30:34;;;;;;;8.55;2.95;;;15.60;72.20;;;;;;5039601;28;20491;-64
2023/04/14 12:33:10;;;;;;;7.35;3.35;;;15.60;73.70;;;;;;5058608;28;20418;-65
2023/04/14 12:35:37;;;;;;;8.32;3.13;;;15.60;71.20;;;;;;5067910;28;20116;-67
2023/04/14 12:38:13;;;;;;;9.27;2.90;;;15.60;72.70;;;;;;5052435;28;20473;-67
2023/04/14 12:40:42;;;;;;;6.78;2.78;;;15.50;70.00;;;;;;5042710;28;20033;-67
2023/04/14 12:43:08;;;;;;;6.13;2.78;;;15.40;69.90;;;;;;5051936;28;20064;-67
2023/04/14 12:45:44;;;;;;;9.23;2.55;;;15.40;70.50;;;;;;5054378;28;20033;-67
2023/04/14 12:48:11;;;;;;;9.43;2.58;;;15.30;70.10;;;;;;5071050;28;20052;-67
2023/04/14 12:50:37;;;;;;;4.82;2.83;;;15.30;69.80;;;;;;5055889;28;20032;-67
2023/04/14 12:53:31;;;;;;;8.32;2.90;;;15.40;69.80;;;;;;5055902;28;20367;-67
2023/04/14 12:56:07;;;;;;;7.70;2.90;;;15.50;69.30;;;;;;5054404;28;20044;-65
2023/04/14 12:58:37;;;;;;;8.43;2.70;;;15.50;69.00;;;;;;5054417;28;20034;-67
2023/04/14 13:01:05;;;;;;;11.32;3.28;;;15.50;69.30;;;;;;5042090;28;20045;-67